sensor_id;sensor_type;location;lat;lon;timestamp;P1;durP1;ratioP1;P2;durP2;ratioP2
6739;SDS011;3407;49.882;10.920;2023-02-13T00:00:32;6.13;;;4.77;;
6739;SDS011;3407;49.882;10.920;2023-02-13T00:05:29;7.53;;;5.20;;
6739;SDS011;3407;49.882;10.920;2023-02-13T00:10:24;8.20;;;5.73;;
6739;SDS011;3407;49.882;10.920;2023-02-13T00:15:20;6.20;;;5.47;;
6739;SDS011;3407;49.882;10.920;2023-02-13T00:20:16;8.27;;;5.37;;
6739;SDS011;3407;49.882;10.920;2023-02-13T00:25:11;7.67;;;4.90;;
6739;SDS011;3407;49.882;10.920;2023-02-13T00:30:07;8.23;;;5.53;;
6739;SDS011;3407;49.882;10.920;2023-02-13T00:35:03;9.73;;;6.43;;
6739;SDS011;3407;49.882;10.920;2023-02-13T00:39:59;7.87;;;6.20;;
6739;SDS011;3407;49.882;10.920;2023-02-13T00:44:54;10.70;;;6.50;;
6739;SDS011;3407;49.882;10.920;2023-02-13T00:49:50;8.30;;;5.70;;
6739;SDS011;3407;49.882;10.920;2023-02-13T00:54:45;7.80;;;6.17;;
6739;SDS011;3407;49.882;10.920;2023-02-13T00:59:41;7.63;;;5.57;;
6739;SDS011;3407;49.882;10.920;2023-02-13T01:04:37;7.90;;;5.60;;
6739;SDS011;3407;49.882;10.920;2023-02-13T01:09:32;8.40;;;5.63;;
6739;SDS011;3407;49.882;10.920;2023-02-13T01:14:28;9.97;;;5.80;;
6739;SDS011;3407;49.882;10.920;2023-02-13T01:19:23;7.67;;;5.53;;
6739;SDS011;3407;49.882;10.920;2023-02-13T01:24:19;9.17;;;6.57;;
6739;SDS011;3407;49.882;10.920;2023-02-13T01:29:14;6.27;;;5.27;;
6739;SDS011;3407;49.882;10.920;2023-02-13T01:34:10;6.83;;;5.43;;
6739;SDS011;3407;49.882;10.920;2023-02-13T01:39:05;9.60;;;5.43;;
6739;SDS011;3407;49.882;10.920;2023-02-13T01:44:01;9.53;;;6.03;;
6739;SDS011;3407;49.882;10.920;2023-02-13T01:49:12;6.63;;;5.67;;
6739;SDS011;3407;49.882;10.920;2023-02-13T01:54:13;9.13;;;5.77;;
6739;SDS011;3407;49.882;10.920;2023-02-13T01:59:15;7.10;;;6.17;;
6739;SDS011;3407;49.882;10.920;2023-02-13T02:04:18;6.80;;;5.80;;
6739;SDS011;3407;49.882;10.920;2023-02-13T02:09:20;10.20;;;6.90;;
6739;SDS011;3407;49.882;10.920;2023-02-13T02:14:18;13.10;;;7.37;;
6739;SDS011;3407;49.882;10.920;2023-02-13T02:19:24;9.43;;;6.73;;
6739;SDS011;3407;49.882;10.920;2023-02-13T02:29:27;10.23;;;7.23;;
6739;SDS011;3407;49.882;10.920;2023-02-13T02:34:50;10.67;;;6.40;;
6739;SDS011;3407;49.882;10.920;2023-02-13T02:40:11;9.83;;;6.90;;
6739;SDS011;3407;49.882;10.920;2023-02-13T02:45:39;9.43;;;7.37;;
6739;SDS011;3407;49.882;10.920;2023-02-13T02:55:49;11.13;;;6.10;;
6739;SDS011;3407;49.882;10.920;2023-02-13T03:00:54;11.77;;;6.70;;
6739;SDS011;3407;49.882;10.920;2023-02-13T03:06:17;9.13;;;5.77;;
6739;SDS011;3407;49.882;10.920;2023-02-13T03:11:18;9.67;;;6.77;;
6739;SDS011;3407;49.882;10.920;2023-02-13T03:16:33;10.77;;;7.13;;
6739;SDS011;3407;49.882;10.920;2023-02-13T03:27:25;12.63;;;7.60;;
6739;SDS011;3407;49.882;10.920;2023-02-13T03:32:58;16.20;;;7.60;;
6739;SDS011;3407;49.882;10.920;2023-02-13T03:38:14;13.30;;;8.00;;
6739;SDS011;3407;49.882;10.920;2023-02-13T03:43:39;9.90;;;6.83;;
6739;SDS011;3407;49.882;10.920;2023-02-13T03:48:47;8.30;;;6.87;;
6739;SDS011;3407;49.882;10.920;2023-02-13T03:54:03;8.63;;;6.50;;
6739;SDS011;3407;49.882;10.920;2023-02-13T03:59:02;10.77;;;7.00;;
6739;SDS011;3407;49.882;10.920;2023-02-13T04:04:16;8.60;;;7.00;;
6739;SDS011;3407;49.882;10.920;2023-02-13T04:09:17;14.43;;;7.70;;
6739;SDS011;3407;49.882;10.920;2023-02-13T04:14:14;8.73;;;7.40;;
6739;SDS011;3407;49.882;10.920;2023-02-13T04:19:18;9.60;;;7.03;;
6739;SDS011;3407;49.882;10.920;2023-02-13T04:24:15;10.33;;;6.83;;
6739;SDS011;3407;49.882;10.920;2023-02-13T04:29:10;6.97;;;5.80;;
6739;SDS011;3407;49.882;10.920;2023-02-13T04:34:06;11.03;;;6.37;;
6739;SDS011;3407;49.882;10.920;2023-02-13T04:39:01;11.30;;;6.20;;
6739;SDS011;3407;49.882;10.920;2023-02-13T04:43:57;12.03;;;6.30;;
6739;SDS011;3407;49.882;10.920;2023-02-13T04:48:52;15.83;;;6.33;;
6739;SDS011;3407;49.882;10.920;2023-02-13T04:53:47;8.47;;;6.33;;
6739;SDS011;3407;49.882;10.920;2023-02-13T04:58:43;11.47;;;6.00;;
6739;SDS011;3407;49.882;10.920;2023-02-13T05:03:39;20.93;;;6.63;;
6739;SDS011;3407;49.882;10.920;2023-02-13T05:08:34;11.07;;;6.00;;
6739;SDS011;3407;49.882;10.920;2023-02-13T05:13:30;12.73;;;6.50;;
6739;SDS011;3407;49.882;10.920;2023-02-13T05:18:25;15.20;;;6.27;;
6739;SDS011;3407;49.882;10.920;2023-02-13T05:23:21;23.23;;;8.57;;
6739;SDS011;3407;49.882;10.920;2023-02-13T05:28:16;15.97;;;7.00;;
6739;SDS011;3407;49.882;10.920;2023-02-13T05:33:31;12.93;;;7.27;;
6739;SDS011;3407;49.882;10.920;2023-02-13T05:38:26;11.20;;;6.93;;
6739;SDS011;3407;49.882;10.920;2023-02-13T05:43:21;23.40;;;7.47;;
6739;SDS011;3407;49.882;10.920;2023-02-13T05:48:17;16.30;;;8.20;;
6739;SDS011;3407;49.882;10.920;2023-02-13T05:53:12;15.93;;;8.47;;
6739;SDS011;3407;49.882;10.920;2023-02-13T05:58:08;20.97;;;7.67;;
6739;SDS011;3407;49.882;10.920;2023-02-13T06:03:05;13.87;;;6.70;;
6739;SDS011;3407;49.882;10.920;2023-02-13T06:08:01;15.30;;;7.93;;
6739;SDS011;3407;49.882;10.920;2023-02-13T06:12:56;21.00;;;9.07;;
6739;SDS011;3407;49.882;10.920;2023-02-13T06:17:52;13.10;;;5.27;;
6739;SDS011;3407;49.882;10.920;2023-02-13T06:22:48;10.07;;;4.60;;
6739;SDS011;3407;49.882;10.920;2023-02-13T06:27:44;12.30;;;4.83;;
6739;SDS011;3407;49.882;10.920;2023-02-13T06:32:40;7.60;;;4.53;;
6739;SDS011;3407;49.882;10.920;2023-02-13T06:37:35;11.83;;;4.70;;
6739;SDS011;3407;49.882;10.920;2023-02-13T06:42:31;11.53;;;5.73;;
6739;SDS011;3407;49.882;10.920;2023-02-13T06:47:27;24.70;;;7.00;;
6739;SDS011;3407;49.882;10.920;2023-02-13T06:52:22;20.50;;;8.13;;
6739;SDS011;3407;49.882;10.920;2023-02-13T06:57:18;27.03;;;7.97;;
6739;SDS011;3407;49.882;10.920;2023-02-13T07:02:13;17.23;;;7.07;;
6739;SDS011;3407;49.882;10.920;2023-02-13T07:07:09;22.70;;;8.20;;
6739;SDS011;3407;49.882;10.920;2023-02-13T07:12:04;16.53;;;7.83;;
6739;SDS011;3407;49.882;10.920;2023-02-13T07:17:00;14.00;;;7.67;;
6739;SDS011;3407;49.882;10.920;2023-02-13T07:21:56;19.07;;;6.97;;
6739;SDS011;3407;49.882;10.920;2023-02-13T07:26:51;19.57;;;7.33;;
6739;SDS011;3407;49.882;10.920;2023-02-13T07:31:47;19.83;;;7.30;;
6739;SDS011;3407;49.882;10.920;2023-02-13T07:36:42;17.10;;;6.27;;
6739;SDS011;3407;49.882;10.920;2023-02-13T07:41:38;14.10;;;6.43;;
6739;SDS011;3407;49.882;10.920;2023-02-13T07:46:33;10.57;;;7.27;;
6739;SDS011;3407;49.882;10.920;2023-02-13T07:51:29;11.80;;;7.23;;
6739;SDS011;3407;49.882;10.920;2023-02-13T07:56:24;21.20;;;8.17;;
6739;SDS011;3407;49.882;10.920;2023-02-13T08:01:20;18.17;;;7.93;;
6739;SDS011;3407;49.882;10.920;2023-02-13T08:06:16;11.63;;;7.07;;
6739;SDS011;3407;49.882;10.920;2023-02-13T08:11:27;15.87;;;7.47;;
6739;SDS011;3407;49.882;10.920;2023-02-13T08:16:45;21.97;;;8.70;;
6739;SDS011;3407;49.882;10.920;2023-02-13T08:21:40;14.93;;;6.67;;
6739;SDS011;3407;49.882;10.920;2023-02-13T08:26:36;14.17;;;5.83;;
6739;SDS011;3407;49.882;10.920;2023-02-13T08:31:32;17.97;;;4.80;;
6739;SDS011;3407;49.882;10.920;2023-02-13T08:36:27;17.20;;;6.17;;
6739;SDS011;3407;49.882;10.920;2023-02-13T08:41:23;11.93;;;5.37;;
6739;SDS011;3407;49.882;10.920;2023-02-13T08:46:18;10.60;;;5.43;;
6739;SDS011;3407;49.882;10.920;2023-02-13T08:51:14;13.80;;;5.47;;
6739;SDS011;3407;49.882;10.920;2023-02-13T08:56:09;11.90;;;5.33;;
6739;SDS011;3407;49.882;10.920;2023-02-13T09:01:06;7.67;;;4.70;;
6739;SDS011;3407;49.882;10.920;2023-02-13T09:06:02;12.77;;;5.37;;
6739;SDS011;3407;49.882;10.920;2023-02-13T09:10:58;9.57;;;5.20;;
6739;SDS011;3407;49.882;10.920;2023-02-13T09:15:59;17.90;;;5.60;;
6739;SDS011;3407;49.882;10.920;2023-02-13T09:20:56;7.50;;;5.60;;
6739;SDS011;3407;49.882;10.920;2023-02-13T09:26:00;18.33;;;5.33;;
6739;SDS011;3407;49.882;10.920;2023-02-13T09:30:57;13.63;;;6.47;;
6739;SDS011;3407;49.882;10.920;2023-02-13T09:35:52;6.43;;;5.43;;
6739;SDS011;3407;49.882;10.920;2023-02-13T09:40:54;12.87;;;5.50;;
6739;SDS011;3407;49.882;10.920;2023-02-13T09:45:54;11.27;;;5.77;;
6739;SDS011;3407;49.882;10.920;2023-02-13T09:50:55;12.63;;;5.83;;
6739;SDS011;3407;49.882;10.920;2023-02-13T09:55:57;9.77;;;5.50;;
6739;SDS011;3407;49.882;10.920;2023-02-13T10:01:14;8.70;;;5.93;;
6739;SDS011;3407;49.882;10.920;2023-02-13T10:06:29;11.20;;;6.40;;
6739;SDS011;3407;49.882;10.920;2023-02-13T10:11:39;8.23;;;6.33;;
6739;SDS011;3407;49.882;10.920;2023-02-13T10:17:06;7.00;;;4.93;;
6739;SDS011;3407;49.882;10.920;2023-02-13T10:37:31;7.97;;;5.67;;
6739;SDS011;3407;49.882;10.920;2023-02-13T11:03:39;9.63;;;6.93;;
6739;SDS011;3407;49.882;10.920;2023-02-13T11:08:37;8.83;;;6.40;;
6739;SDS011;3407;49.882;10.920;2023-02-13T11:13:37;9.50;;;6.90;;
6739;SDS011;3407;49.882;10.920;2023-02-13T11:18:34;11.67;;;7.30;;
6739;SDS011;3407;49.882;10.920;2023-02-13T11:23:33;13.70;;;8.07;;
6739;SDS011;3407;49.882;10.920;2023-02-13T11:28:33;11.47;;;8.23;;
6739;SDS011;3407;49.882;10.920;2023-02-13T11:33:39;18.70;;;11.10;;
6739;SDS011;3407;49.882;10.920;2023-02-13T11:38:35;19.83;;;11.97;;
6739;SDS011;3407;49.882;10.920;2023-02-13T11:43:35;18.00;;;11.83;;
6739;SDS011;3407;49.882;10.920;2023-02-13T11:48:37;21.67;;;12.70;;
6739;SDS011;3407;49.882;10.920;2023-02-13T11:53:37;21.37;;;13.83;;
6739;SDS011;3407;49.882;10.920;2023-02-13T11:58:33;22.10;;;13.10;;
6739;SDS011;3407;49.882;10.920;2023-02-13T12:03:30;23.83;;;14.67;;
6739;SDS011;3407;49.882;10.920;2023-02-13T12:08:26;21.77;;;13.90;;
6739;SDS011;3407;49.882;10.920;2023-02-13T12:13:25;22.13;;;14.27;;
6739;SDS011;3407;49.882;10.920;2023-02-13T12:18:28;24.30;;;15.27;;
6739;SDS011;3407;49.882;10.920;2023-02-13T12:23:32;25.80;;;16.20;;
6739;SDS011;3407;49.882;10.920;2023-02-13T12:28:45;26.83;;;17.27;;
6739;SDS011;3407;49.882;10.920;2023-02-13T12:39:17;27.73;;;17.50;;
6739;SDS011;3407;49.882;10.920;2023-02-13T12:44:40;25.57;;;15.67;;
6739;SDS011;3407;49.882;10.920;2023-02-13T12:50:21;23.00;;;15.27;;
6739;SDS011;3407;49.882;10.920;2023-02-13T12:55:29;19.90;;;12.67;;
6739;SDS011;3407;49.882;10.920;2023-02-13T13:06:03;16.87;;;14.03;;
6739;SDS011;3407;49.882;10.920;2023-02-13T13:11:21;20.17;;;13.00;;
6739;SDS011;3407;49.882;10.920;2023-02-13T13:16:42;19.37;;;12.80;;
6739;SDS011;3407;49.882;10.920;2023-02-13T13:26:53;16.77;;;11.97;;
6739;SDS011;3407;49.882;10.920;2023-02-13T13:31:59;21.70;;;12.50;;
6739;SDS011;3407;49.882;10.920;2023-02-13T13:58:19;16.53;;;13.17;;
6739;SDS011;3407;49.882;10.920;2023-02-13T14:03:22;15.20;;;12.80;;
6739;SDS011;3407;49.882;10.920;2023-02-13T14:13:37;14.63;;;11.73;;
6739;SDS011;3407;49.882;10.920;2023-02-13T14:18:34;13.80;;;11.33;;
6739;SDS011;3407;49.882;10.920;2023-02-13T14:23:36;13.93;;;10.60;;
6739;SDS011;3407;49.882;10.920;2023-02-13T14:33:44;13.20;;;10.50;;
6739;SDS011;3407;49.882;10.920;2023-02-13T14:38:40;11.73;;;9.90;;
6739;SDS011;3407;49.882;10.920;2023-02-13T14:49:02;13.53;;;9.93;;
6739;SDS011;3407;49.882;10.920;2023-02-13T14:54:14;11.40;;;9.60;;
6739;SDS011;3407;49.882;10.920;2023-02-13T14:59:23;12.10;;;9.17;;
6739;SDS011;3407;49.882;10.920;2023-02-13T15:04:29;10.30;;;8.73;;
6739;SDS011;3407;49.882;10.920;2023-02-13T15:14:33;11.53;;;8.93;;
6739;SDS011;3407;49.882;10.920;2023-02-13T15:19:30;11.07;;;9.07;;
6739;SDS011;3407;49.882;10.920;2023-02-13T15:24:51;11.47;;;8.37;;
6739;SDS011;3407;49.882;10.920;2023-02-13T15:29:53;12.37;;;10.07;;
6739;SDS011;3407;49.882;10.920;2023-02-13T15:34:51;12.07;;;9.30;;
6739;SDS011;3407;49.882;10.920;2023-02-13T15:39:47;12.03;;;9.67;;
6739;SDS011;3407;49.882;10.920;2023-02-13T15:44:44;12.10;;;9.33;;
6739;SDS011;3407;49.882;10.920;2023-02-13T15:49:44;12.23;;;9.60;;
6739;SDS011;3407;49.882;10.920;2023-02-13T15:54:51;14.00;;;9.63;;
6739;SDS011;3407;49.882;10.920;2023-02-13T15:59:48;16.67;;;11.50;;
6739;SDS011;3407;49.882;10.920;2023-02-13T16:04:44;23.57;;;14.80;;
6739;SDS011;3407;49.882;10.920;2023-02-13T16:09:41;21.27;;;15.00;;
6739;SDS011;3407;49.882;10.920;2023-02-13T16:14:41;17.40;;;12.13;;
6739;SDS011;3407;49.882;10.920;2023-02-13T16:25:03;21.60;;;12.93;;
6739;SDS011;3407;49.882;10.920;2023-02-13T16:30:00;19.10;;;13.07;;
6739;SDS011;3407;49.882;10.920;2023-02-13T16:45:25;18.23;;;11.33;;
6739;SDS011;3407;49.882;10.920;2023-02-13T16:50:21;18.90;;;10.83;;
6739;SDS011;3407;49.882;10.920;2023-02-13T16:55:17;18.07;;;10.17;;
6739;SDS011;3407;49.882;10.920;2023-02-13T17:05:18;14.90;;;9.23;;
6739;SDS011;3407;49.882;10.920;2023-02-13T17:15:55;14.83;;;9.90;;
6739;SDS011;3407;49.882;10.920;2023-02-13T17:20:50;13.93;;;9.63;;
6739;SDS011;3407;49.882;10.920;2023-02-13T17:25:46;17.37;;;10.20;;
6739;SDS011;3407;49.882;10.920;2023-02-13T17:30:43;12.57;;;8.50;;
6739;SDS011;3407;49.882;10.920;2023-02-13T17:35:39;18.53;;;9.23;;
6739;SDS011;3407;49.882;10.920;2023-02-13T17:40:35;17.33;;;9.40;;
6739;SDS011;3407;49.882;10.920;2023-02-13T17:45:31;16.00;;;9.23;;
6739;SDS011;3407;49.882;10.920;2023-02-13T17:50:28;13.53;;;9.67;;
6739;SDS011;3407;49.882;10.920;2023-02-13T17:55:26;14.40;;;8.90;;
6739;SDS011;3407;49.882;10.920;2023-02-13T18:00:23;30.10;;;15.33;;
6739;SDS011;3407;49.882;10.920;2023-02-13T18:05:22;20.30;;;10.60;;
6739;SDS011;3407;49.882;10.920;2023-02-13T18:10:22;20.73;;;11.97;;
6739;SDS011;3407;49.882;10.920;2023-02-13T18:15:19;14.57;;;8.37;;
6739;SDS011;3407;49.882;10.920;2023-02-13T18:20:16;12.70;;;8.50;;
6739;SDS011;3407;49.882;10.920;2023-02-13T18:25:15;11.03;;;7.67;;
6739;SDS011;3407;49.882;10.920;2023-02-13T18:30:11;14.50;;;9.33;;
6739;SDS011;3407;49.882;10.920;2023-02-13T18:35:10;11.33;;;8.13;;
6739;SDS011;3407;49.882;10.920;2023-02-13T18:40:06;13.03;;;8.63;;
6739;SDS011;3407;49.882;10.920;2023-02-13T18:45:03;13.13;;;8.00;;
6739;SDS011;3407;49.882;10.920;2023-02-13T18:49:58;8.97;;;7.50;;
6739;SDS011;3407;49.882;10.920;2023-02-13T18:54:59;10.67;;;7.67;;
6739;SDS011;3407;49.882;10.920;2023-02-13T18:59:54;12.10;;;7.93;;
6739;SDS011;3407;49.882;10.920;2023-02-13T19:04:50;10.20;;;7.30;;
6739;SDS011;3407;49.882;10.920;2023-02-13T19:09:45;12.77;;;8.17;;
6739;SDS011;3407;49.882;10.920;2023-02-13T19:14:42;11.77;;;8.83;;
6739;SDS011;3407;49.882;10.920;2023-02-13T19:19:38;12.23;;;8.63;;
6739;SDS011;3407;49.882;10.920;2023-02-13T19:24:33;14.37;;;8.80;;
6739;SDS011;3407;49.882;10.920;2023-02-13T19:29:29;11.37;;;7.87;;
6739;SDS011;3407;49.882;10.920;2023-02-13T19:34:24;14.23;;;9.30;;
6739;SDS011;3407;49.882;10.920;2023-02-13T19:39:20;10.00;;;8.37;;
6739;SDS011;3407;49.882;10.920;2023-02-13T19:44:15;10.87;;;7.33;;
6739;SDS011;3407;49.882;10.920;2023-02-13T19:49:11;10.97;;;8.13;;
6739;SDS011;3407;49.882;10.920;2023-02-13T19:54:07;11.13;;;7.37;;
6739;SDS011;3407;49.882;10.920;2023-02-13T19:59:05;14.70;;;8.63;;
6739;SDS011;3407;49.882;10.920;2023-02-13T20:04:04;14.13;;;8.57;;
6739;SDS011;3407;49.882;10.920;2023-02-13T20:09:00;15.17;;;9.97;;
6739;SDS011;3407;49.882;10.920;2023-02-13T20:13:58;11.27;;;8.07;;
6739;SDS011;3407;49.882;10.920;2023-02-13T20:19:05;12.10;;;8.37;;
6739;SDS011;3407;49.882;10.920;2023-02-13T20:24:03;9.00;;;7.87;;
6739;SDS011;3407;49.882;10.920;2023-02-13T20:28:59;9.33;;;7.17;;
6739;SDS011;3407;49.882;10.920;2023-02-13T20:33:55;14.57;;;8.30;;
6739;SDS011;3407;49.882;10.920;2023-02-13T20:38:52;12.73;;;9.23;;
6739;SDS011;3407;49.882;10.920;2023-02-13T20:43:50;11.17;;;8.73;;
6739;SDS011;3407;49.882;10.920;2023-02-13T20:48:46;13.67;;;10.07;;
6739;SDS011;3407;49.882;10.920;2023-02-13T20:53:43;18.97;;;11.27;;
6739;SDS011;3407;49.882;10.920;2023-02-13T20:58:40;12.87;;;9.07;;
6739;SDS011;3407;49.882;10.920;2023-02-13T21:03:37;14.37;;;8.77;;
6739;SDS011;3407;49.882;10.920;2023-02-13T21:08:32;12.27;;;8.43;;
6739;SDS011;3407;49.882;10.920;2023-02-13T21:13:28;14.57;;;9.93;;
6739;SDS011;3407;49.882;10.920;2023-02-13T21:18:26;11.87;;;8.70;;
6739;SDS011;3407;49.882;10.920;2023-02-13T21:23:22;14.20;;;9.87;;
6739;SDS011;3407;49.882;10.920;2023-02-13T21:28:17;17.10;;;10.57;;
6739;SDS011;3407;49.882;10.920;2023-02-13T21:33:13;14.80;;;9.80;;
6739;SDS011;3407;49.882;10.920;2023-02-13T21:38:08;11.87;;;9.30;;
6739;SDS011;3407;49.882;10.920;2023-02-13T21:43:04;14.37;;;9.53;;
6739;SDS011;3407;49.882;10.920;2023-02-13T21:47:59;10.83;;;8.90;;
6739;SDS011;3407;49.882;10.920;2023-02-13T21:52:55;11.57;;;8.13;;
6739;SDS011;3407;49.882;10.920;2023-02-13T21:57:50;11.93;;;8.80;;
6739;SDS011;3407;49.882;10.920;2023-02-13T22:02:46;11.87;;;8.63;;
6739;SDS011;3407;49.882;10.920;2023-02-13T22:07:41;13.40;;;9.20;;
6739;SDS011;3407;49.882;10.920;2023-02-13T22:12:56;10.67;;;9.23;;
6739;SDS011;3407;49.882;10.920;2023-02-13T22:17:51;21.73;;;10.57;;
6739;SDS011;3407;49.882;10.920;2023-02-13T22:22:47;17.17;;;11.23;;
6739;SDS011;3407;49.882;10.920;2023-02-13T22:27:46;18.47;;;12.37;;
6739;SDS011;3407;49.882;10.920;2023-02-13T22:32:42;24.87;;;13.50;;
6739;SDS011;3407;49.882;10.920;2023-02-13T22:37:37;29.03;;;15.30;;
6739;SDS011;3407;49.882;10.920;2023-02-13T22:42:33;21.47;;;12.40;;
6739;SDS011;3407;49.882;10.920;2023-02-13T22:47:28;23.53;;;13.30;;
6739;SDS011;3407;49.882;10.920;2023-02-13T22:52:24;28.03;;;13.93;;
6739;SDS011;3407;49.882;10.920;2023-02-13T22:57:19;27.90;;;15.00;;
6739;SDS011;3407;49.882;10.920;2023-02-13T23:02:15;28.70;;;14.33;;
6739;SDS011;3407;49.882;10.920;2023-02-13T23:07:10;28.40;;;16.17;;
6739;SDS011;3407;49.882;10.920;2023-02-13T23:12:07;30.93;;;16.70;;
6739;SDS011;3407;49.882;10.920;2023-02-13T23:17:38;37.53;;;19.13;;
6739;SDS011;3407;49.882;10.920;2023-02-13T23:22:54;39.47;;;18.77;;
6739;SDS011;3407;49.882;10.920;2023-02-13T23:27:49;41.93;;;18.23;;
6739;SDS011;3407;49.882;10.920;2023-02-13T23:32:47;31.90;;;18.37;;
6739;SDS011;3407;49.882;10.920;2023-02-13T23:37:43;42.93;;;18.97;;
6739;SDS011;3407;49.882;10.920;2023-02-13T23:42:38;39.47;;;20.40;;
6739;SDS011;3407;49.882;10.920;2023-02-13T23:47:34;41.57;;;19.37;;
6739;SDS011;3407;49.882;10.920;2023-02-13T23:52:30;37.80;;;20.37;;
6739;SDS011;3407;49.882;10.920;2023-02-13T23:57:25;39.97;;;19.00;;
